sensor_id;sensor_type;location;lat;lon;timestamp;P1;durP1;ratioP1;P2;durP2;ratioP2
21148;SDS011;10732;51.472;6.466;2022-11-20T00:01:20;26.47;;;19.87;;
21148;SDS011;10732;51.472;6.466;2022-11-20T00:03:47;24.23;;;19.27;;
21148;SDS011;10732;51.472;6.466;2022-11-20T00:06:15;24.50;;;20.17;;
21148;SDS011;10732;51.472;6.466;2022-11-20T00:08:42;24.00;;;18.47;;
21148;SDS011;10732;51.472;6.466;2022-11-20T00:11:11;24.47;;;20.33;;
21148;SDS011;10732;51.472;6.466;2022-11-20T00:13:39;24.37;;;19.93;;
21148;SDS011;10732;51.472;6.466;2022-11-20T00:16:05;26.43;;;20.90;;
21148;SDS011;10732;51.472;6.466;2022-11-20T00:18:33;28.00;;;22.23;;
21148;SDS011;10732;51.472;6.466;2022-11-20T00:21:06;25.17;;;20.33;;
21148;SDS011;10732;51.472;6.466;2022-11-20T00:23:35;29.53;;;22.37;;
21148;SDS011;10732;51.472;6.466;2022-11-20T00:26:04;24.93;;;20.17;;
21148;SDS011;10732;51.472;6.466;2022-11-20T00:28:31;25.63;;;20.30;;
21148;SDS011;10732;51.472;6.466;2022-11-20T00:31:07;24.63;;;19.70;;
21148;SDS011;10732;51.472;6.466;2022-11-20T00:33:34;24.60;;;19.37;;
21148;SDS011;10732;51.472;6.466;2022-11-20T00:36:01;23.33;;;18.57;;
21148;SDS011;10732;51.472;6.466;2022-11-20T00:38:28;23.97;;;18.70;;
21148;SDS011;10732;51.472;6.466;2022-11-20T00:40:56;24.33;;;18.50;;
21148;SDS011;10732;51.472;6.466;2022-11-20T00:43:22;23.60;;;18.73;;
21148;SDS011;10732;51.472;6.466;2022-11-20T00:45:48;22.67;;;18.53;;
21148;SDS011;10732;51.472;6.466;2022-11-20T00:48:14;23.63;;;18.07;;
21148;SDS011;10732;51.472;6.466;2022-11-20T00:50:40;23.90;;;18.57;;
21148;SDS011;10732;51.472;6.466;2022-11-20T00:53:06;23.00;;;18.97;;
21148;SDS011;10732;51.472;6.466;2022-11-20T00:55:31;22.37;;;18.73;;
21148;SDS011;10732;51.472;6.466;2022-11-20T00:57:57;20.20;;;17.27;;
21148;SDS011;10732;51.472;6.466;2022-11-20T01:00:22;22.23;;;18.83;;
21148;SDS011;10732;51.472;6.466;2022-11-20T01:02:48;24.73;;;19.10;;
21148;SDS011;10732;51.472;6.466;2022-11-20T01:05:13;24.90;;;18.93;;
21148;SDS011;10732;51.472;6.466;2022-11-20T01:07:39;23.20;;;19.57;;
21148;SDS011;10732;51.472;6.466;2022-11-20T01:10:05;25.77;;;20.03;;
21148;SDS011;10732;51.472;6.466;2022-11-20T01:12:31;24.30;;;19.70;;
21148;SDS011;10732;51.472;6.466;2022-11-20T01:14:56;24.27;;;19.33;;
21148;SDS011;10732;51.472;6.466;2022-11-20T01:17:22;23.60;;;19.60;;
21148;SDS011;10732;51.472;6.466;2022-11-20T01:19:50;27.00;;;21.40;;
21148;SDS011;10732;51.472;6.466;2022-11-20T01:22:16;26.20;;;21.07;;
21148;SDS011;10732;51.472;6.466;2022-11-20T01:24:41;27.47;;;20.70;;
21148;SDS011;10732;51.472;6.466;2022-11-20T01:27:07;24.83;;;20.83;;
21148;SDS011;10732;51.472;6.466;2022-11-20T01:29:32;26.47;;;21.23;;
21148;SDS011;10732;51.472;6.466;2022-11-20T01:31:58;27.93;;;20.17;;
21148;SDS011;10732;51.472;6.466;2022-11-20T01:34:24;27.13;;;21.13;;
21148;SDS011;10732;51.472;6.466;2022-11-20T01:36:50;27.20;;;21.00;;
21148;SDS011;10732;51.472;6.466;2022-11-20T01:39:23;26.57;;;20.97;;
21148;SDS011;10732;51.472;6.466;2022-11-20T01:41:51;24.17;;;21.00;;
21148;SDS011;10732;51.472;6.466;2022-11-20T01:44:42;25.23;;;20.30;;
21148;SDS011;10732;51.472;6.466;2022-11-20T01:47:47;24.20;;;20.23;;
21148;SDS011;10732;51.472;6.466;2022-11-20T01:52:45;26.47;;;20.53;;
21148;SDS011;10732;51.472;6.466;2022-11-20T01:55:49;24.57;;;20.73;;
21148;SDS011;10732;51.472;6.466;2022-11-20T01:58:13;26.33;;;20.63;;
21148;SDS011;10732;51.472;6.466;2022-11-20T02:00:39;26.20;;;21.03;;
21148;SDS011;10732;51.472;6.466;2022-11-20T02:03:06;27.07;;;21.30;;
21148;SDS011;10732;51.472;6.466;2022-11-20T02:05:45;26.20;;;21.53;;
21148;SDS011;10732;51.472;6.466;2022-11-20T02:08:11;27.40;;;22.03;;
21148;SDS011;10732;51.472;6.466;2022-11-20T02:10:37;27.27;;;21.80;;
21148;SDS011;10732;51.472;6.466;2022-11-20T02:13:03;30.77;;;22.97;;
21148;SDS011;10732;51.472;6.466;2022-11-20T02:15:48;27.83;;;21.60;;
21148;SDS011;10732;51.472;6.466;2022-11-20T02:18:14;28.23;;;22.87;;
21148;SDS011;10732;51.472;6.466;2022-11-20T02:20:42;27.23;;;21.63;;
21148;SDS011;10732;51.472;6.466;2022-11-20T02:26:16;31.97;;;23.27;;
21148;SDS011;10732;51.472;6.466;2022-11-20T02:28:43;27.87;;;22.77;;
21148;SDS011;10732;51.472;6.466;2022-11-20T02:31:09;28.80;;;22.77;;
21148;SDS011;10732;51.472;6.466;2022-11-20T02:33:34;27.20;;;21.83;;
21148;SDS011;10732;51.472;6.466;2022-11-20T02:36:00;26.57;;;21.97;;
21148;SDS011;10732;51.472;6.466;2022-11-20T02:38:26;28.20;;;22.80;;
21148;SDS011;10732;51.472;6.466;2022-11-20T02:40:51;29.07;;;22.97;;
21148;SDS011;10732;51.472;6.466;2022-11-20T02:43:17;31.03;;;23.83;;
21148;SDS011;10732;51.472;6.466;2022-11-20T02:45:42;29.87;;;23.83;;
21148;SDS011;10732;51.472;6.466;2022-11-20T02:48:08;29.87;;;24.10;;
21148;SDS011;10732;51.472;6.466;2022-11-20T02:50:36;31.20;;;24.40;;
21148;SDS011;10732;51.472;6.466;2022-11-20T02:53:02;32.00;;;25.23;;
21148;SDS011;10732;51.472;6.466;2022-11-20T02:55:28;31.83;;;23.57;;
21148;SDS011;10732;51.472;6.466;2022-11-20T02:57:53;34.37;;;26.00;;
21148;SDS011;10732;51.472;6.466;2022-11-20T03:00:19;33.47;;;26.60;;
21148;SDS011;10732;51.472;6.466;2022-11-20T03:02:44;32.30;;;25.00;;
21148;SDS011;10732;51.472;6.466;2022-11-20T03:05:10;31.90;;;24.70;;
21148;SDS011;10732;51.472;6.466;2022-11-20T03:07:35;30.57;;;24.23;;
21148;SDS011;10732;51.472;6.466;2022-11-20T03:10:01;32.43;;;24.87;;
21148;SDS011;10732;51.472;6.466;2022-11-20T03:12:26;30.77;;;24.77;;
21148;SDS011;10732;51.472;6.466;2022-11-20T03:14:52;34.20;;;26.27;;
21148;SDS011;10732;51.472;6.466;2022-11-20T03:17:17;31.60;;;24.60;;
21148;SDS011;10732;51.472;6.466;2022-11-20T03:19:43;35.77;;;26.53;;
21148;SDS011;10732;51.472;6.466;2022-11-20T03:22:08;31.93;;;25.67;;
21148;SDS011;10732;51.472;6.466;2022-11-20T03:24:34;34.17;;;26.03;;
21148;SDS011;10732;51.472;6.466;2022-11-20T03:27:00;36.33;;;26.90;;
21148;SDS011;10732;51.472;6.466;2022-11-20T03:29:25;34.73;;;27.77;;
21148;SDS011;10732;51.472;6.466;2022-11-20T03:31:51;37.03;;;28.63;;
21148;SDS011;10732;51.472;6.466;2022-11-20T03:34:16;36.87;;;27.87;;
21148;SDS011;10732;51.472;6.466;2022-11-20T03:36:42;36.13;;;28.03;;
21148;SDS011;10732;51.472;6.466;2022-11-20T03:39:08;36.50;;;28.87;;
21148;SDS011;10732;51.472;6.466;2022-11-20T03:41:38;36.87;;;28.23;;
21148;SDS011;10732;51.472;6.466;2022-11-20T03:44:06;36.63;;;27.13;;
21148;SDS011;10732;51.472;6.466;2022-11-20T03:46:33;37.13;;;28.40;;
21148;SDS011;10732;51.472;6.466;2022-11-20T03:48:59;32.63;;;25.97;;
21148;SDS011;10732;51.472;6.466;2022-11-20T03:51:27;32.80;;;26.20;;
21148;SDS011;10732;51.472;6.466;2022-11-20T03:53:55;32.30;;;24.70;;
21148;SDS011;10732;51.472;6.466;2022-11-20T03:56:23;33.33;;;26.20;;
21148;SDS011;10732;51.472;6.466;2022-11-20T03:58:53;32.87;;;26.03;;
21148;SDS011;10732;51.472;6.466;2022-11-20T04:01:21;32.03;;;25.40;;
21148;SDS011;10732;51.472;6.466;2022-11-20T04:03:48;30.97;;;24.00;;
21148;SDS011;10732;51.472;6.466;2022-11-20T04:06:15;30.47;;;24.13;;
21148;SDS011;10732;51.472;6.466;2022-11-20T04:08:43;32.87;;;25.33;;
21148;SDS011;10732;51.472;6.466;2022-11-20T04:13:34;32.17;;;25.03;;
21148;SDS011;10732;51.472;6.466;2022-11-20T04:15:59;31.47;;;24.70;;
21148;SDS011;10732;51.472;6.466;2022-11-20T04:18:25;31.00;;;24.17;;
21148;SDS011;10732;51.472;6.466;2022-11-20T04:20:50;29.33;;;23.50;;
21148;SDS011;10732;51.472;6.466;2022-11-20T04:23:16;29.73;;;24.20;;
21148;SDS011;10732;51.472;6.466;2022-11-20T04:25:41;29.43;;;23.37;;
21148;SDS011;10732;51.472;6.466;2022-11-20T04:28:07;30.57;;;23.20;;
21148;SDS011;10732;51.472;6.466;2022-11-20T04:30:32;27.67;;;22.13;;
21148;SDS011;10732;51.472;6.466;2022-11-20T04:32:58;24.77;;;22.10;;
21148;SDS011;10732;51.472;6.466;2022-11-20T04:35:23;26.33;;;21.80;;
21148;SDS011;10732;51.472;6.466;2022-11-20T04:37:51;28.60;;;22.67;;
21148;SDS011;10732;51.472;6.466;2022-11-20T04:40:17;25.77;;;21.50;;
21148;SDS011;10732;51.472;6.466;2022-11-20T04:42:42;27.03;;;22.50;;
21148;SDS011;10732;51.472;6.466;2022-11-20T04:45:08;24.37;;;21.27;;
21148;SDS011;10732;51.472;6.466;2022-11-20T04:47:33;24.47;;;21.10;;
21148;SDS011;10732;51.472;6.466;2022-11-20T04:49:59;23.87;;;21.10;;
21148;SDS011;10732;51.472;6.466;2022-11-20T04:52:24;24.73;;;21.47;;
21148;SDS011;10732;51.472;6.466;2022-11-20T04:54:50;26.73;;;21.50;;
21148;SDS011;10732;51.472;6.466;2022-11-20T04:57:17;24.17;;;21.07;;
21148;SDS011;10732;51.472;6.466;2022-11-20T04:59:43;25.40;;;21.30;;
21148;SDS011;10732;51.472;6.466;2022-11-20T05:02:09;24.10;;;20.77;;
21148;SDS011;10732;51.472;6.466;2022-11-20T05:04:35;25.93;;;21.97;;
21148;SDS011;10732;51.472;6.466;2022-11-20T05:07:00;24.13;;;21.50;;
21148;SDS011;10732;51.472;6.466;2022-11-20T05:09:26;25.23;;;21.83;;
21148;SDS011;10732;51.472;6.466;2022-11-20T05:11:51;26.23;;;21.67;;
21148;SDS011;10732;51.472;6.466;2022-11-20T05:14:17;25.00;;;20.77;;
21148;SDS011;10732;51.472;6.466;2022-11-20T05:16:42;25.90;;;21.50;;
21148;SDS011;10732;51.472;6.466;2022-11-20T05:19:08;25.27;;;21.60;;
21148;SDS011;10732;51.472;6.466;2022-11-20T05:21:34;23.53;;;19.87;;
21148;SDS011;10732;51.472;6.466;2022-11-20T05:23:59;28.50;;;22.07;;
21148;SDS011;10732;51.472;6.466;2022-11-20T05:26:25;25.87;;;21.67;;
21148;SDS011;10732;51.472;6.466;2022-11-20T05:28:50;22.93;;;20.33;;
21148;SDS011;10732;51.472;6.466;2022-11-20T05:31:17;23.17;;;20.67;;
21148;SDS011;10732;51.472;6.466;2022-11-20T05:33:44;22.53;;;20.13;;
21148;SDS011;10732;51.472;6.466;2022-11-20T05:36:11;24.47;;;20.47;;
21148;SDS011;10732;51.472;6.466;2022-11-20T05:38:38;22.43;;;20.03;;
21148;SDS011;10732;51.472;6.466;2022-11-20T05:41:08;25.10;;;20.60;;
21148;SDS011;10732;51.472;6.466;2022-11-20T05:43:34;26.03;;;21.77;;
21148;SDS011;10732;51.472;6.466;2022-11-20T05:46:02;25.20;;;21.10;;
21148;SDS011;10732;51.472;6.466;2022-11-20T05:48:28;23.97;;;20.93;;
21148;SDS011;10732;51.472;6.466;2022-11-20T05:50:54;25.20;;;21.57;;
21148;SDS011;10732;51.472;6.466;2022-11-20T05:53:21;24.83;;;20.53;;
21148;SDS011;10732;51.472;6.466;2022-11-20T05:55:46;23.90;;;21.33;;
21148;SDS011;10732;51.472;6.466;2022-11-20T05:58:20;26.27;;;22.07;;
21148;SDS011;10732;51.472;6.466;2022-11-20T06:00:46;26.07;;;22.10;;
21148;SDS011;10732;51.472;6.466;2022-11-20T06:03:11;24.90;;;21.97;;
21148;SDS011;10732;51.472;6.466;2022-11-20T06:05:36;27.27;;;22.77;;
21148;SDS011;10732;51.472;6.466;2022-11-20T06:08:02;24.97;;;21.53;;
21148;SDS011;10732;51.472;6.466;2022-11-20T06:10:28;29.80;;;24.53;;
21148;SDS011;10732;51.472;6.466;2022-11-20T06:12:53;27.37;;;23.23;;
21148;SDS011;10732;51.472;6.466;2022-11-20T06:15:21;26.17;;;22.80;;
21148;SDS011;10732;51.472;6.466;2022-11-20T06:17:51;26.20;;;22.33;;
21148;SDS011;10732;51.472;6.466;2022-11-20T06:20:20;25.37;;;22.27;;
21148;SDS011;10732;51.472;6.466;2022-11-20T06:22:46;25.43;;;21.73;;
21148;SDS011;10732;51.472;6.466;2022-11-20T06:25:12;27.53;;;22.33;;
21148;SDS011;10732;51.472;6.466;2022-11-20T06:27:37;25.83;;;22.70;;
21148;SDS011;10732;51.472;6.466;2022-11-20T06:30:03;30.43;;;24.37;;
21148;SDS011;10732;51.472;6.466;2022-11-20T06:32:29;28.37;;;23.63;;
21148;SDS011;10732;51.472;6.466;2022-11-20T06:34:55;27.83;;;23.23;;
21148;SDS011;10732;51.472;6.466;2022-11-20T06:37:20;30.13;;;23.90;;
21148;SDS011;10732;51.472;6.466;2022-11-20T06:39:46;28.23;;;23.37;;
21148;SDS011;10732;51.472;6.466;2022-11-20T06:42:11;29.87;;;24.03;;
21148;SDS011;10732;51.472;6.466;2022-11-20T06:44:37;29.37;;;23.17;;
21148;SDS011;10732;51.472;6.466;2022-11-20T06:47:02;28.33;;;24.30;;
21148;SDS011;10732;51.472;6.466;2022-11-20T06:49:28;32.30;;;24.00;;
21148;SDS011;10732;51.472;6.466;2022-11-20T06:51:54;29.63;;;23.93;;
21148;SDS011;10732;51.472;6.466;2022-11-20T06:54:19;30.63;;;24.40;;
21148;SDS011;10732;51.472;6.466;2022-11-20T06:56:48;30.47;;;24.00;;
21148;SDS011;10732;51.472;6.466;2022-11-20T06:59:13;29.40;;;25.00;;
21148;SDS011;10732;51.472;6.466;2022-11-20T07:01:39;27.57;;;23.63;;
21148;SDS011;10732;51.472;6.466;2022-11-20T07:04:05;29.40;;;25.37;;
21148;SDS011;10732;51.472;6.466;2022-11-20T07:06:30;26.87;;;23.97;;
21148;SDS011;10732;51.472;6.466;2022-11-20T07:08:56;30.27;;;25.40;;
21148;SDS011;10732;51.472;6.466;2022-11-20T07:11:22;31.23;;;26.20;;
21148;SDS011;10732;51.472;6.466;2022-11-20T07:13:48;28.00;;;24.90;;
21148;SDS011;10732;51.472;6.466;2022-11-20T07:16:14;29.90;;;26.03;;
21148;SDS011;10732;51.472;6.466;2022-11-20T07:18:39;31.07;;;25.60;;
21148;SDS011;10732;51.472;6.466;2022-11-20T07:21:06;29.60;;;25.97;;
21148;SDS011;10732;51.472;6.466;2022-11-20T07:23:34;31.67;;;25.77;;
21148;SDS011;10732;51.472;6.466;2022-11-20T07:26:07;31.17;;;27.37;;
21148;SDS011;10732;51.472;6.466;2022-11-20T07:28:34;31.03;;;25.30;;
21148;SDS011;10732;51.472;6.466;2022-11-20T07:31:00;30.90;;;26.17;;
21148;SDS011;10732;51.472;6.466;2022-11-20T07:33:26;30.83;;;25.17;;
21148;SDS011;10732;51.472;6.466;2022-11-20T07:35:52;33.30;;;26.50;;
21148;SDS011;10732;51.472;6.466;2022-11-20T07:38:17;33.03;;;27.20;;
21148;SDS011;10732;51.472;6.466;2022-11-20T07:40:43;31.37;;;26.27;;
21148;SDS011;10732;51.472;6.466;2022-11-20T07:43:08;30.53;;;25.70;;
21148;SDS011;10732;51.472;6.466;2022-11-20T07:45:34;30.40;;;26.60;;
21148;SDS011;10732;51.472;6.466;2022-11-20T07:48:00;33.13;;;27.30;;
21148;SDS011;10732;51.472;6.466;2022-11-20T07:50:25;30.43;;;25.93;;
21148;SDS011;10732;51.472;6.466;2022-11-20T07:52:51;32.80;;;28.30;;
21148;SDS011;10732;51.472;6.466;2022-11-20T07:55:17;26.17;;;22.77;;
21148;SDS011;10732;51.472;6.466;2022-11-20T07:57:42;28.90;;;22.10;;
21148;SDS011;10732;51.472;6.466;2022-11-20T08:00:09;29.13;;;23.57;;
21148;SDS011;10732;51.472;6.466;2022-11-20T08:02:39;28.80;;;23.70;;
21148;SDS011;10732;51.472;6.466;2022-11-20T08:05:06;27.73;;;22.80;;
21148;SDS011;10732;51.472;6.466;2022-11-20T08:07:37;27.23;;;22.90;;
21148;SDS011;10732;51.472;6.466;2022-11-20T08:10:03;27.73;;;22.33;;
21148;SDS011;10732;51.472;6.466;2022-11-20T08:12:29;28.23;;;21.80;;
21148;SDS011;10732;51.472;6.466;2022-11-20T08:15:13;28.87;;;22.37;;
21148;SDS011;10732;51.472;6.466;2022-11-20T08:17:39;28.00;;;21.63;;
21148;SDS011;10732;51.472;6.466;2022-11-20T08:20:05;28.27;;;21.47;;
21148;SDS011;10732;51.472;6.466;2022-11-20T08:22:30;24.97;;;19.87;;
21148;SDS011;10732;51.472;6.466;2022-11-20T08:24:56;24.47;;;18.97;;
21148;SDS011;10732;51.472;6.466;2022-11-20T08:27:22;24.02;;;18.33;;
21148;SDS011;10732;51.472;6.466;2022-11-20T08:29:48;27.77;;;21.20;;
21148;SDS011;10732;51.472;6.466;2022-11-20T08:32:13;22.95;;;18.45;;
21148;SDS011;10732;51.472;6.466;2022-11-20T08:34:39;19.90;;;16.52;;
21148;SDS011;10732;51.472;6.466;2022-11-20T08:37:04;18.88;;;16.15;;
21148;SDS011;10732;51.472;6.466;2022-11-20T08:39:30;28.40;;;22.63;;
21148;SDS011;10732;51.472;6.466;2022-11-20T08:41:55;27.38;;;20.48;;
21148;SDS011;10732;51.472;6.466;2022-11-20T08:44:21;28.75;;;23.27;;
21148;SDS011;10732;51.472;6.466;2022-11-20T08:46:46;17.70;;;15.20;;
21148;SDS011;10732;51.472;6.466;2022-11-20T08:49:12;18.95;;;15.27;;
21148;SDS011;10732;51.472;6.466;2022-11-20T08:51:39;29.23;;;22.13;;
21148;SDS011;10732;51.472;6.466;2022-11-20T08:54:06;21.05;;;17.42;;
21148;SDS011;10732;51.472;6.466;2022-11-20T08:56:32;20.25;;;16.48;;
21148;SDS011;10732;51.472;6.466;2022-11-20T08:58:58;19.02;;;15.52;;
21148;SDS011;10732;51.472;6.466;2022-11-20T09:01:27;19.98;;;15.05;;
21148;SDS011;10732;51.472;6.466;2022-11-20T09:03:56;20.65;;;15.85;;
21148;SDS011;10732;51.472;6.466;2022-11-20T09:06:22;20.67;;;15.88;;
21148;SDS011;10732;51.472;6.466;2022-11-20T09:08:51;20.60;;;15.63;;
21148;SDS011;10732;51.472;6.466;2022-11-20T09:11:18;16.52;;;13.90;;
21148;SDS011;10732;51.472;6.466;2022-11-20T09:13:43;18.05;;;13.88;;
21148;SDS011;10732;51.472;6.466;2022-11-20T09:16:09;16.60;;;14.02;;
21148;SDS011;10732;51.472;6.466;2022-11-20T09:18:35;18.98;;;14.15;;
21148;SDS011;10732;51.472;6.466;2022-11-20T09:21:03;17.33;;;13.68;;
21148;SDS011;10732;51.472;6.466;2022-11-20T09:23:31;17.73;;;13.63;;
21148;SDS011;10732;51.472;6.466;2022-11-20T09:26:01;16.55;;;13.70;;
21148;SDS011;10732;51.472;6.466;2022-11-20T09:28:28;16.58;;;13.68;;
21148;SDS011;10732;51.472;6.466;2022-11-20T09:30:54;16.17;;;12.65;;
21148;SDS011;10732;51.472;6.466;2022-11-20T09:33:19;16.38;;;12.82;;
21148;SDS011;10732;51.472;6.466;2022-11-20T09:35:45;13.70;;;12.25;;
21148;SDS011;10732;51.472;6.466;2022-11-20T09:38:10;15.93;;;13.38;;
21148;SDS011;10732;51.472;6.466;2022-11-20T09:40:38;14.85;;;13.25;;
21148;SDS011;10732;51.472;6.466;2022-11-20T09:43:11;17.75;;;14.10;;
21148;SDS011;10732;51.472;6.466;2022-11-20T09:48:35;17.08;;;15.20;;
21148;SDS011;10732;51.472;6.466;2022-11-20T09:51:36;17.27;;;14.18;;
21148;SDS011;10732;51.472;6.466;2022-11-20T09:54:35;19.33;;;15.30;;
21148;SDS011;10732;51.472;6.466;2022-11-20T09:59:50;21.77;;;15.70;;
21148;SDS011;10732;51.472;6.466;2022-11-20T10:05:35;23.33;;;16.42;;
21148;SDS011;10732;51.472;6.466;2022-11-20T10:07:53;20.17;;;15.73;;
21148;SDS011;10732;51.472;6.466;2022-11-20T10:10:41;23.33;;;17.23;;
21148;SDS011;10732;51.472;6.466;2022-11-20T10:13:30;22.20;;;17.40;;
21148;SDS011;10732;51.472;6.466;2022-11-20T10:16:21;22.23;;;17.65;;
21148;SDS011;10732;51.472;6.466;2022-11-20T10:30:15;26.70;;;20.30;;
21148;SDS011;10732;51.472;6.466;2022-11-20T10:32:43;27.23;;;21.00;;
21148;SDS011;10732;51.472;6.466;2022-11-20T10:40:55;29.30;;;21.85;;
21148;SDS011;10732;51.472;6.466;2022-11-20T10:43:44;28.52;;;22.10;;
21148;SDS011;10732;51.472;6.466;2022-11-20T10:46:15;31.52;;;22.65;;
21148;SDS011;10732;51.472;6.466;2022-11-20T10:48:45;34.92;;;24.63;;
21148;SDS011;10732;51.472;6.466;2022-11-20T10:53:57;37.35;;;23.98;;
21148;SDS011;10732;51.472;6.466;2022-11-20T10:56:47;40.30;;;25.43;;
21148;SDS011;10732;51.472;6.466;2022-11-20T11:01:49;37.67;;;25.95;;
21148;SDS011;10732;51.472;6.466;2022-11-20T11:07:04;47.50;;;28.35;;
21148;SDS011;10732;51.472;6.466;2022-11-20T11:09:46;49.45;;;28.13;;
21148;SDS011;10732;51.472;6.466;2022-11-20T11:12:14;47.60;;;27.83;;
21148;SDS011;10732;51.472;6.466;2022-11-20T11:14:47;48.40;;;28.50;;
21148;SDS011;10732;51.472;6.466;2022-11-20T11:22:26;49.75;;;28.60;;
21148;SDS011;10732;51.472;6.466;2022-11-20T11:24:57;47.15;;;27.65;;
21148;SDS011;10732;51.472;6.466;2022-11-20T11:27:23;50.50;;;28.27;;
21148;SDS011;10732;51.472;6.466;2022-11-20T11:29:48;51.33;;;27.85;;
21148;SDS011;10732;51.472;6.466;2022-11-20T11:32:15;50.28;;;27.45;;
21148;SDS011;10732;51.472;6.466;2022-11-20T11:34:43;50.95;;;28.15;;
21148;SDS011;10732;51.472;6.466;2022-11-20T11:37:19;49.53;;;28.17;;
21148;SDS011;10732;51.472;6.466;2022-11-20T11:39:49;46.53;;;27.48;;
21148;SDS011;10732;51.472;6.466;2022-11-20T11:42:16;49.58;;;28.80;;
21148;SDS011;10732;51.472;6.466;2022-11-20T11:44:44;47.10;;;28.02;;
21148;SDS011;10732;51.472;6.466;2022-11-20T11:47:36;51.45;;;28.85;;
21148;SDS011;10732;51.472;6.466;2022-11-20T11:52:35;45.60;;;27.80;;
21148;SDS011;10732;51.472;6.466;2022-11-20T11:55:07;49.40;;;28.73;;
21148;SDS011;10732;51.472;6.466;2022-11-20T12:00:20;47.00;;;25.80;;
21148;SDS011;10732;51.472;6.466;2022-11-20T12:05:25;45.00;;;26.60;;
21148;SDS011;10732;51.472;6.466;2022-11-20T12:15:49;43.00;;;24.00;;
21148;SDS011;10732;51.472;6.466;2022-11-20T12:18:16;36.20;;;23.17;;
21148;SDS011;10732;51.472;6.466;2022-11-20T12:29:11;39.58;;;24.45;;
21148;SDS011;10732;51.472;6.466;2022-11-20T12:32:20;39.53;;;23.60;;
21148;SDS011;10732;51.472;6.466;2022-11-20T12:34:47;39.70;;;24.33;;
21148;SDS011;10732;51.472;6.466;2022-11-20T12:43:10;39.03;;;23.73;;
21148;SDS011;10732;51.472;6.466;2022-11-20T12:49:17;44.03;;;26.17;;
21148;SDS011;10732;51.472;6.466;2022-11-20T12:52:01;42.50;;;25.13;;
21148;SDS011;10732;51.472;6.466;2022-11-20T12:57:18;47.00;;;28.25;;
21148;SDS011;10732;51.472;6.466;2022-11-20T12:59:59;46.83;;;28.77;;
21148;SDS011;10732;51.472;6.466;2022-11-20T13:07:43;47.35;;;29.02;;
21148;SDS011;10732;51.472;6.466;2022-11-20T13:10:13;54.30;;;29.77;;
21148;SDS011;10732;51.472;6.466;2022-11-20T13:12:45;50.50;;;28.98;;
21148;SDS011;10732;51.472;6.466;2022-11-20T13:18:08;53.00;;;30.70;;
21148;SDS011;10732;51.472;6.466;2022-11-20T13:20:35;52.47;;;31.50;;
21148;SDS011;10732;51.472;6.466;2022-11-20T13:23:05;48.72;;;28.55;;
21148;SDS011;10732;51.472;6.466;2022-11-20T13:25:35;49.72;;;28.52;;
21148;SDS011;10732;51.472;6.466;2022-11-20T13:30:34;51.47;;;29.95;;
21148;SDS011;10732;51.472;6.466;2022-11-20T13:33:06;51.25;;;28.90;;
21148;SDS011;10732;51.472;6.466;2022-11-20T13:36:20;47.80;;;29.42;;
21148;SDS011;10732;51.472;6.466;2022-11-20T13:38:48;49.50;;;29.38;;
21148;SDS011;10732;51.472;6.466;2022-11-20T13:41:26;49.47;;;29.55;;
21148;SDS011;10732;51.472;6.466;2022-11-20T13:43:57;47.00;;;29.50;;
21148;SDS011;10732;51.472;6.466;2022-11-20T13:46:34;46.13;;;28.88;;
21148;SDS011;10732;51.472;6.466;2022-11-20T13:52:01;46.42;;;28.63;;
21148;SDS011;10732;51.472;6.466;2022-11-20T13:55:02;46.43;;;27.60;;
21148;SDS011;10732;51.472;6.466;2022-11-20T14:00:21;50.20;;;30.75;;
21148;SDS011;10732;51.472;6.466;2022-11-20T14:03:30;50.50;;;31.30;;
21148;SDS011;10732;51.472;6.466;2022-11-20T14:05:59;44.05;;;27.38;;
21148;SDS011;10732;51.472;6.466;2022-11-20T14:11:02;47.50;;;28.52;;
21148;SDS011;10732;51.472;6.466;2022-11-20T14:13:29;45.30;;;28.88;;
21148;SDS011;10732;51.472;6.466;2022-11-20T14:15:57;44.83;;;28.75;;
21148;SDS011;10732;51.472;6.466;2022-11-20T14:18:25;45.30;;;29.17;;
21148;SDS011;10732;51.472;6.466;2022-11-20T14:20:51;51.43;;;30.33;;
21148;SDS011;10732;51.472;6.466;2022-11-20T14:23:27;48.80;;;29.75;;
21148;SDS011;10732;51.472;6.466;2022-11-20T14:25:53;51.38;;;30.60;;
21148;SDS011;10732;51.472;6.466;2022-11-20T14:28:23;60.55;;;36.47;;
21148;SDS011;10732;51.472;6.466;2022-11-20T14:30:54;50.58;;;32.30;;
21148;SDS011;10732;51.472;6.466;2022-11-20T14:33:21;54.85;;;31.55;;
21148;SDS011;10732;51.472;6.466;2022-11-20T14:35:50;46.28;;;29.70;;
21148;SDS011;10732;51.472;6.466;2022-11-20T14:38:22;46.53;;;29.63;;
21148;SDS011;10732;51.472;6.466;2022-11-20T14:40:53;48.33;;;29.48;;
21148;SDS011;10732;51.472;6.466;2022-11-20T14:43:20;49.60;;;29.87;;
21148;SDS011;10732;51.472;6.466;2022-11-20T14:48:31;56.87;;;32.37;;
21148;SDS011;10732;51.472;6.466;2022-11-20T14:51:01;49.53;;;30.77;;
21148;SDS011;10732;51.472;6.466;2022-11-20T14:53:27;52.77;;;30.93;;
21148;SDS011;10732;51.472;6.466;2022-11-20T14:55:57;49.92;;;30.40;;
21148;SDS011;10732;51.472;6.466;2022-11-20T14:58:25;50.10;;;31.17;;
21148;SDS011;10732;51.472;6.466;2022-11-20T15:01:02;51.10;;;31.30;;
21148;SDS011;10732;51.472;6.466;2022-11-20T15:03:37;49.72;;;30.88;;
21148;SDS011;10732;51.472;6.466;2022-11-20T15:06:05;51.83;;;31.85;;
21148;SDS011;10732;51.472;6.466;2022-11-20T15:08:32;54.70;;;33.37;;
21148;SDS011;10732;51.472;6.466;2022-11-20T15:10:59;58.37;;;33.97;;
21148;SDS011;10732;51.472;6.466;2022-11-20T15:13:26;51.05;;;31.67;;
21148;SDS011;10732;51.472;6.466;2022-11-20T15:15:56;57.75;;;34.33;;
21148;SDS011;10732;51.472;6.466;2022-11-20T15:18:26;56.93;;;34.10;;
21148;SDS011;10732;51.472;6.466;2022-11-20T15:20:57;56.60;;;34.27;;
21148;SDS011;10732;51.472;6.466;2022-11-20T15:23:28;59.00;;;33.53;;
21148;SDS011;10732;51.472;6.466;2022-11-20T15:25:54;59.00;;;35.57;;
21148;SDS011;10732;51.472;6.466;2022-11-20T15:28:21;63.20;;;35.40;;
21148;SDS011;10732;51.472;6.466;2022-11-20T15:30:54;57.28;;;34.10;;
21148;SDS011;10732;51.472;6.466;2022-11-20T15:33:20;61.08;;;37.08;;
21148;SDS011;10732;51.472;6.466;2022-11-20T15:35:46;63.10;;;36.20;;
21148;SDS011;10732;51.472;6.466;2022-11-20T15:38:12;61.78;;;36.83;;
21148;SDS011;10732;51.472;6.466;2022-11-20T15:40:38;63.17;;;35.85;;
21148;SDS011;10732;51.472;6.466;2022-11-20T15:43:03;61.20;;;36.35;;
21148;SDS011;10732;51.472;6.466;2022-11-20T15:45:40;65.78;;;37.85;;
21148;SDS011;10732;51.472;6.466;2022-11-20T15:48:09;69.07;;;39.53;;
21148;SDS011;10732;51.472;6.466;2022-11-20T15:50:54;75.53;;;39.55;;
21148;SDS011;10732;51.472;6.466;2022-11-20T15:53:23;69.18;;;39.38;;
21148;SDS011;10732;51.472;6.466;2022-11-20T15:55:48;76.77;;;39.03;;
21148;SDS011;10732;51.472;6.466;2022-11-20T15:58:14;78.40;;;40.10;;
21148;SDS011;10732;51.472;6.466;2022-11-20T16:00:41;79.45;;;40.42;;
21148;SDS011;10732;51.472;6.466;2022-11-20T16:03:09;72.88;;;37.80;;
21148;SDS011;10732;51.472;6.466;2022-11-20T16:05:36;72.20;;;38.20;;
21148;SDS011;10732;51.472;6.466;2022-11-20T16:08:02;70.97;;;38.92;;
21148;SDS011;10732;51.472;6.466;2022-11-20T16:10:27;71.10;;;38.50;;
21148;SDS011;10732;51.472;6.466;2022-11-20T16:12:53;71.50;;;39.83;;
21148;SDS011;10732;51.472;6.466;2022-11-20T16:15:37;76.18;;;40.90;;